Time;durP1;ratioP1;P1;durP2;ratioP2;P2;SDS_P1;SDS_P2;PMS_P1;PMS_P2;Temp;Humidity;BMP_temperature;BMP_pressure;BME280_temperature;BME280_humidity;BME280_pressure;Samples;Min_cycle;Max_cycle;Signal;HPM_P1;HPM_P2
2021/01/22 00:02:22;;;;;;;;;;;;;;;;;;5038588;28;20425;-83
2021/01/22 00:04:49;;;;;;;;;;;;;;;;;;5040383;28;20407;-82
2021/01/22 00:07:15;;;;;;;;;;;;;;;;;;5040080;28;20399;-82
2021/01/22 00:09:41;;;;;;;;;;;;;;;;;;5022357;28;20385;-82
2021/01/22 00:12:08;;;;;;;;;;;;;;;;;;5040608;28;20411;-83
2021/01/22 00:14:34;;;;;;;;;;;;;;;;;;5037733;28;20386;-83
2021/01/22 00:17:01;;;;;;;;;;;;;;;;;;5040044;28;20391;-83
2021/01/22 00:19:27;;;;;;;;;;;;;;;;;;5040680;28;20379;-83
2021/01/22 00:21:53;;;;;;;;;;;;;;;;;;5022223;28;20413;-83
2021/01/22 00:24:20;;;;;;;;;;;;;;;;;;5036650;28;20406;-83
2021/01/22 00:26:46;;;;;;;;;;;;;;;;;;5037173;28;20755;-83
2021/01/22 00:29:12;;;;;;;;;;;;;;;;;;5041421;28;20391;-83
2021/01/22 00:31:39;;;;;;;;;;;;;;;;;;5043539;28;20411;-82
2021/01/22 00:34:05;;;;;;;;;;;;;;;;;;5056404;28;20685;-83
2021/01/22 00:36:31;;;;;;;;;;;;;;;;;;5030842;28;20390;-83
2021/01/22 00:38:58;;;;;;;;;;;;;;;;;;5025365;28;20393;-83
2021/01/22 00:41:24;;;;;;;;;;;;;;;;;;5030328;28;20387;-83
2021/01/22 00:43:51;;;;;;;;;;;;;;;;;;5039342;28;20411;-83
2021/01/22 00:46:17;;;;;;;;;;;;;;;;;;5039804;28;20390;-83
2021/01/22 00:48:43;;;;;;;;;;;;;;;;;;5040478;28;20758;-83
2021/01/22 00:51:10;;;;;;;;;;;;;;;;;;5039905;28;20401;-83
2021/01/22 00:53:36;;;;;;;;;;;;;;;;;;5040111;28;20418;-83
2021/01/22 00:56:02;;;;;;;;;;;;;;;;;;5039807;28;20779;-83
2021/01/22 00:58:29;;;;;;;;;;;;;;;;;;5040761;28;20394;-83
2021/01/22 01:00:55;;;;;;;;;;;;;;;;;;5038147;28;20391;-83
2021/01/22 01:03:21;;;;;;;;;;;;;;;;;;5039439;28;20418;-83
2021/01/22 01:05:48;;;;;;;;;;;;;;;;;;5040502;28;20418;-83
2021/01/22 01:08:14;;;;;;;;;;;;;;;;;;5039073;28;20410;-83
2021/01/22 01:10:41;;;;;;;;;;;;;;;;;;5040414;28;20409;-83
2021/01/22 01:13:07;;;;;;;;;;;;;;;;;;5040160;28;20407;-83
2021/01/22 01:15:33;;;;;;;;;;;;;;;;;;5047468;28;20462;-82
2021/01/22 01:18:00;;;;;;;;;;;;;;;;;;5057890;28;20397;-82
2021/01/22 01:20:26;;;;;;;;;;;;;;;;;;5055853;28;20370;-82
2021/01/22 01:22:52;;;;;;;;;;;;;;;;;;5042768;28;20403;-83
2021/01/22 01:25:19;;;;;;;;;;;;;;;;;;5039138;28;20413;-83
2021/01/22 01:27:45;;;;;;;;;;;;;;;;;;5035141;28;20398;-83
2021/01/22 01:30:12;;;;;;;;;;;;;;;;;;5039724;28;20395;-83
2021/01/22 01:32:38;;;;;;;;;;;;;;;;;;5040109;28;20403;-83
2021/01/22 01:35:04;;;;;;;;;;;;;;;;;;5040038;28;20395;-83
2021/01/22 01:37:31;;;;;;;;;;;;;;;;;;5040592;28;20838;-83
2021/01/22 01:39:57;;;;;;;;;;;;;;;;;;5041053;28;20391;-83
2021/01/22 01:42:23;;;;;;;;;;;;;;;;;;5040613;28;20449;-82
2021/01/22 01:44:50;;;;;;;;;;;;;;;;;;5039486;28;20398;-82
2021/01/22 01:47:16;;;;;;;;;;;;;;;;;;5039037;28;20394;-82
2021/01/22 01:49:42;;;;;;;;;;;;;;;;;;5038793;28;20413;-82
2021/01/22 01:52:09;;;;;;;;;;;;;;;;;;5039089;28;20489;-82
2021/01/22 01:54:35;;;;;;;;;;;;;;;;;;5025424;28;20399;-82
2021/01/22 01:57:02;;;;;;;;;;;;;;;;;;5040038;28;20440;-82
2021/01/22 01:59:28;;;;;;;;;;;;;;;;;;5039564;28;20386;-82
2021/01/22 02:01:54;;;;;;;;;;;;;;;;;;5052904;23;20418;-80
2021/01/22 02:04:21;;;;;;;;;;;;;;;;;;5019260;28;20413;-80
2021/01/22 02:06:47;;;;;;;;;;;;;;;;;;5022315;28;20393;-80
2021/01/22 02:09:13;;;;;;;;;;;;;;;;;;5027037;28;20379;-80
2021/01/22 02:11:40;;;;;;;;;;;;;;;;;;5019553;28;20385;-80
2021/01/22 02:14:06;;;;;;;;;;;;;;;;;;5008650;28;20758;-80
2021/01/22 02:16:33;;;;;;;;;;;;;;;;;;5001987;28;20385;-80
2021/01/22 02:18:59;;;;;;;;;;;;;;;;;;5009963;28;20388;-80
2021/01/22 02:21:25;;;;;;;;;;;;;;;;;;5016749;28;20398;-80
2021/01/22 02:23:52;;;;;;;;;;;;;;;;;;5017274;28;20773;-80
2021/01/22 02:26:18;;;;;;;;;;;;;;;;;;5018453;28;20398;-80
2021/01/22 02:28:44;;;;;;;;;;;;;;;;;;5016644;28;20389;-80
2021/01/22 02:31:11;;;;;;;;;;;;;;;;;;5017265;28;20758;-79
2021/01/22 02:33:37;;;;;;;;;;;;;;;;;;5010756;28;20457;-80
2021/01/22 02:36:03;;;;;;;;;;;;;;;;;;5004683;28;20389;-80
2021/01/22 02:38:30;;;;;;;;;;;;;;;;;;5028544;28;20377;-80
2021/01/22 02:40:57;;;;;;;;;;;;;;;;;;5040158;28;20377;-80
2021/01/22 02:43:23;;;;;;;;;;;;;;;;;;5022636;28;20420;-80
2021/01/22 02:45:50;;;;;;;;;;;;;;;;;;5021546;28;20412;-80
2021/01/22 02:48:16;;;;;;;;;;;;;;;;;;5012762;28;20443;-79
2021/01/22 02:50:42;;;;;;;;;;;;;;;;;;5020500;28;20413;-79
2021/01/22 02:53:09;;;;;;;;;;;;;;;;;;5020035;28;20412;-79
2021/01/22 02:55:35;;;;;;;;;;;;;;;;;;5019888;28;20759;-79
2021/01/22 02:58:02;;;;;;;;;;;;;;;;;;5019471;28;20389;-79
2021/01/22 03:00:28;;;;;;;;;;;;;;;;;;5018520;28;20396;-79
2021/01/22 03:02:54;;;;;;;;;;;;;;;;;;5018782;28;20420;-78
2021/01/22 03:05:21;;;;;;;;;;;;;;;;;;5018963;28;20409;-79
2021/01/22 03:07:47;;;;;;;;;;;;;;;;;;5007343;28;20396;-79
2021/01/22 03:10:13;;;;;;;;;;;;;;;;;;5019383;28;20400;-80
2021/01/22 03:12:40;;;;;;;;;;;;;;;;;;5017356;28;20817;-78
2021/01/22 03:15:06;;;;;;;;;;;;;;;;;;5029083;28;20385;-80
2021/01/22 03:17:32;;;;;;;;;;;;;;;;;;5030171;28;20386;-78
2021/01/22 03:19:59;;;;;;;;;;;;;;;;;;5024272;28;20448;-78
2021/01/22 03:22:25;;;;;;;;;;;;;;;;;;5021040;28;20436;-79
2021/01/22 03:24:52;;;;;;;;;;;;;;;;;;5018914;28;20398;-79
2021/01/22 03:27:18;;;;;;;;;;;;;;;;;;5018978;28;20389;-80
2021/01/22 03:29:44;;;;;;;;;;;;;;;;;;5017793;28;20423;-80
2021/01/22 03:32:11;;;;;;;;;;;;;;;;;;5018953;28;20455;-79
2021/01/22 03:34:37;;;;;;;;;;;;;;;;;;5018837;28;20743;-80
2021/01/22 03:37:03;;;;;;;;;;;;;;;;;;5016669;28;20386;-79
2021/01/22 03:39:33;;;;;;;;;;;;;;;;;;5019587;28;20393;-79
2021/01/22 03:42:00;;;;;;;;;;;;;;;;;;5016901;28;20406;-79
2021/01/22 03:44:27;;;;;;;;;;;;;;;;;;5019066;28;20473;-80
2021/01/22 03:46:54;;;;;;;;;;;;;;;;;;5017410;28;20835;-79
2021/01/22 03:49:20;;;;;;;;;;;;;;;;;;5016797;28;20394;-79
2021/01/22 03:51:46;;;;;;;;;;;;;;;;;;5019679;28;20854;-79
2021/01/22 03:54:13;;;;;;;;;;;;;;;;;;5018740;28;20390;-80
2021/01/22 03:56:39;;;;;;;;;;;;;;;;;;5019141;28;20386;-80
2021/01/22 03:59:05;;;;;;;;;;;;;;;;;;5004250;28;20400;-79
2021/01/22 04:01:32;;;;;;;;;;;;;;;;;;5018313;28;20398;-79
2021/01/22 04:03:58;;;;;;;;;;;;;;;;;;5017596;28;20414;-80
2021/01/22 04:06:24;;;;;;;;;;;;;;;;;;5019132;28;20453;-80
2021/01/22 04:08:51;;;;;;;;;;;;;;;;;;5016893;28;20770;-80
2021/01/22 04:11:17;;;;;;;;;;;;;;;;;;5018646;28;20390;-81
2021/01/22 04:13:44;;;;;;;;;;;;;;;;;;5007917;28;20782;-79
2021/01/22 04:16:10;;;;;;;;;;;;;;;;;;5018898;28;20386;-80
2021/01/22 04:18:37;;;;;;;;;;;;;;;;;;5019420;28;20398;-79
2021/01/22 04:21:03;;;;;;;;;;;;;;;;;;5019102;28;20383;-79
2021/01/22 04:23:29;;;;;;;;;;;;;;;;;;5018984;28;20413;-79
2021/01/22 04:25:56;;;;;;;;;;;;;;;;;;5010772;28;20469;-80
2021/01/22 04:28:22;;;;;;;;;;;;;;;;;;5031004;28;20386;-79
2021/01/22 04:30:49;;;;;;;;;;;;;;;;;;5033980;28;20382;-80
2021/01/22 04:33:15;;;;;;;;;;;;;;;;;;5018916;28;20402;-80
2021/01/22 04:35:41;;;;;;;;;;;;;;;;;;5018709;28;20866;-80
2021/01/22 04:38:08;;;;;;;;;;;;;;;;;;5018901;28;20390;-80
2021/01/22 04:40:34;;;;;;;;;;;;;;;;;;5017981;28;20440;-78
2021/01/22 04:43:00;;;;;;;;;;;;;;;;;;5018277;28;20410;-80
2021/01/22 04:45:27;;;;;;;;;;;;;;;;;;5017317;28;20406;-80
2021/01/22 04:47:53;;;;;;;;;;;;;;;;;;5018562;28;20390;-79
2021/01/22 04:50:20;;;;;;;;;;;;;;;;;;5014589;28;20873;-80
2021/01/22 04:52:46;;;;;;;;;;;;;;;;;;5017652;28;20414;-79
2021/01/22 04:55:12;;;;;;;;;;;;;;;;;;5009484;28;20386;-79
2021/01/22 04:57:39;;;;;;;;;;;;;;;;;;5017603;28;20416;-80
2021/01/22 05:00:05;;;;;;;;;;;;;;;;;;5017920;28;20401;-79
2021/01/22 05:02:31;;;;;;;;;;;;;;;;;;5017703;28;20413;-79
2021/01/22 05:04:58;;;;;;;;;;;;;;;;;;5017959;28;20773;-79
2021/01/22 05:07:24;;;;;;;;;;;;;;;;;;5018204;28;20394;-79
2021/01/22 05:09:50;;;;;;;;;;;;;;;;;;5017086;28;20397;-81
2021/01/22 05:12:17;;;;;;;;;;;;;;;;;;5017827;28;20414;-80
2021/01/22 05:14:43;;;;;;;;;;;;;;;;;;5017525;28;20381;-80
2021/01/22 05:17:10;;;;;;;;;;;;;;;;;;5017995;28;20390;-79
2021/01/22 05:19:36;;;;;;;;;;;;;;;;;;5016594;28;20389;-78
2021/01/22 05:22:02;;;;;;;;;;;;;;;;;;5008505;28;20412;-77
2021/01/22 05:24:29;;;;;;;;;;;;;;;;;;5008923;28;20869;-78
2021/01/22 05:26:55;;;;;;;;;;;;;;;;;;5016645;28;20381;-78
2021/01/22 05:29:21;;;;;;;;;;;;;;;;;;5016506;28;20398;-79
2021/01/22 05:31:48;;;;;;;;;;;;;;;;;;5022892;28;20417;-79
2021/01/22 05:34:14;;;;;;;;;;;;;;;;;;5018285;28;20390;-79
2021/01/22 05:36:41;;;;;;;;;;;;;;;;;;5018306;28;20714;-80
2021/01/22 05:39:07;;;;;;;;;;;;;;;;;;5018587;28;20385;-79
2021/01/22 05:41:33;;;;;;;;;;;;;;;;;;5007728;28;20393;-80
2021/01/22 05:44:00;;;;;;;;;;;;;;;;;;5018571;28;20407;-79
2021/01/22 05:46:27;;;;;;;;;;;;;;;;;;5018993;28;20452;-80
2021/01/22 05:48:53;;;;;;;;;;;;;;;;;;5018196;28;20390;-79
2021/01/22 05:51:19;;;;;;;;;;;;;;;;;;5017528;28;20386;-79
2021/01/22 05:53:46;;;;;;;;;;;;;;;;;;5018630;28;20406;-80
2021/01/22 05:56:12;;;;;;;;;;;;;;;;;;5017864;28;20412;-79
2021/01/22 05:58:39;;;;;;;;;;;;;;;;;;5013752;28;20389;-79
2021/01/22 06:01:05;;;;;;;;;;;;;;;;;;5009210;28;20845;-79
2021/01/22 06:03:31;;;;;;;;;;;;;;;;;;5018383;28;20413;-79
2021/01/22 06:05:58;;;;;;;;;;;;;;;;;;5017590;28;20406;-80
2021/01/22 06:08:24;;;;;;;;;;;;;;;;;;5017355;28;20778;-80
2021/01/22 06:10:50;;;;;;;;;;;;;;;;;;5017530;28;20398;-80
2021/01/22 06:13:17;;;;;;;;;;;;;;;;;;5018201;28;20924;-80
2021/01/22 06:15:43;;;;;;;;;;;;;;;;;;5020415;28;20382;-80
2021/01/22 06:18:16;;;;;;;;;;;;;;;;;;5033636;28;20369;-80
2021/01/22 06:20:42;;;;;;;;;;;;;;;;;;5026600;28;20398;-80
2021/01/22 06:23:09;;;;;;;;;;;;;;;;;;5017077;28;20476;-80
2021/01/22 06:25:35;;;;;;;;;;;;;;;;;;5017567;28;20406;-80
2021/01/22 06:28:01;;;;;;;;;;;;;;;;;;5009329;28;20394;-80
2021/01/22 06:30:28;;;;;;;;;;;;;;;;;;5009915;28;20393;-80
2021/01/22 06:32:54;;;;;;;;;;;;;;;;;;5017579;28;20890;-80
2021/01/22 06:35:20;;;;;;;;;;;;;;;;;;5009143;28;20397;-80
2021/01/22 06:37:47;;;;;;;;;;;;;;;;;;5017314;28;20390;-80
2021/01/22 06:40:13;;;;;;;;;;;;;;;;;;5017099;28;20908;-80
2021/01/22 06:42:39;;;;;;;;;;;;;;;;;;5017993;28;20444;-79
2021/01/22 06:45:06;;;;;;;;;;;;;;;;;;5017164;28;20399;-79
2021/01/22 06:47:32;;;;;;;;;;;;;;;;;;5010954;28;20509;-79
2021/01/22 06:49:59;;;;;;;;;;;;;;;;;;5017163;28;20390;-80
2021/01/22 06:52:25;;;;;;;;;;;;;;;;;;5010370;28;20414;-80
2021/01/22 06:54:52;;;;;;;;;;;;;;;;;;5018426;28;20393;-80
2021/01/22 06:57:18;;;;;;;;;;;;;;;;;;5008060;28;20390;-79
2021/01/22 06:59:44;;;;;;;;;;;;;;;;;;5017002;28;20440;-82
2021/01/22 07:02:11;;;;;;;;;;;;;;;;;;5012452;28;20829;-81
2021/01/22 07:04:38;;;;;;;;;;;;;;;;;;5019126;28;20421;-79
2021/01/22 07:07:04;;;;;;;;;;;;;;;;;;5017331;28;20734;-79
2021/01/22 07:09:30;;;;;;;;;;;;;;;;;;5017333;28;20391;-79
2021/01/22 07:11:57;;;;;;;;;;;;;;;;;;5014499;28;20396;-80
2021/01/22 07:14:23;;;;;;;;;;;;;;;;;;5017955;28;20382;-80
2021/01/22 07:16:50;;;;;;;;;;;;;;;;;;5015314;28;20830;-80
2021/01/22 07:19:16;;;;;;;;;;;;;;;;;;5012140;28;20390;-78
2021/01/22 07:21:44;;;;;;;;;;;;;;;;;;5031214;28;20401;-79
2021/01/22 07:24:12;;;;;;;;;;;;;;;;;;5033635;28;20404;-78
2021/01/22 07:26:39;;;;;;;;;;;;;;;;;;5030912;28;20396;-78
2021/01/22 07:29:05;;;;;;;;;;;;;;;;;;5020256;28;20410;-79
2021/01/22 07:31:32;;;;;;;;;;;;;;;;;;5018688;28;20444;-79
2021/01/22 07:33:58;;;;;;;;;;;;;;;;;;5017365;28;20413;-79
2021/01/22 07:36:24;;;;;;;;;;;;;;;;;;5019863;28;20409;-79
2021/01/22 07:38:51;;;;;;;;;;;;;;;;;;5020149;28;20382;-81
2021/01/22 07:41:17;;;;;;;;;;;;;;;;;;5028902;28;20398;-80
2021/01/22 07:43:44;;;;;;;;;;;;;;;;;;5020777;28;20436;-80
2021/01/22 07:46:10;;;;;;;;;;;;;;;;;;5019280;28;20406;-81
2021/01/22 07:48:36;;;;;;;;;;;;;;;;;;5020493;28;20403;-80
2021/01/22 07:51:03;;;;;;;;;;;;;;;;;;5019849;28;20445;-79
2021/01/22 07:53:29;;;;;;;;;;;;;;;;;;5026432;28;20417;-79
2021/01/22 07:55:55;;;;;;;;;;;;;;;;;;5020636;28;20389;-79
2021/01/22 07:58:22;;;;;;;;;;;;;;;;;;5020405;28;20735;-80
2021/01/22 08:00:48;;;;;;;;;;;;;;;;;;5019756;28;20382;-80
2021/01/22 08:03:15;;;;;;;;;;;;;;;;;;5052675;22;20411;-84
2021/01/22 08:05:41;;;;;;;;;;;;;;;;;;5038908;28;20414;-83
2021/01/22 08:08:07;;;;;;;;;;;;;;;;;;5032750;28;20394;-83
2021/01/22 08:10:34;;;;;;;;;;;;;;;;;;5019697;28;20386;-81
2021/01/22 08:13:00;;;;;;;;;;;;;;;;;;5025336;28;20403;-83
2021/01/22 08:15:26;;;;;;;;;;;;;;;;;;5040407;28;20426;-83
2021/01/22 08:17:53;;;;;;;;;;;;;;;;;;5040496;28;20380;-84
2021/01/22 08:20:19;;;;;;;;;;;;;;;;;;5039109;28;20832;-83
2021/01/22 08:22:45;;;;;;;;;;;;;;;;;;5039753;28;20415;-83
2021/01/22 08:25:12;;;;;;;;;;;;;;;;;;5039477;28;20458;-83
2021/01/22 08:27:38;;;;;;;;;;;;;;;;;;5039046;28;20400;-83
2021/01/22 08:30:04;;;;;;;;;;;;;;;;;;5039392;28;20399;-83
2021/01/22 08:32:31;;;;;;;;;;;;;;;;;;5039597;28;20408;-81
2021/01/22 08:34:57;;;;;;;;;;;;;;;;;;5038888;28;20383;-83
2021/01/22 08:37:24;;;;;;;;;;;;;;;;;;5038597;28;20795;-85
2021/01/22 08:39:51;;;;;;;;;;;;;;;;;;5039170;28;20391;-83
2021/01/22 08:42:18;;;;;;;;;;;;;;;;;;5039179;28;20402;-83
2021/01/22 08:44:44;;;;;;;;;;;;;;;;;;5039562;28;20426;-83
2021/01/22 08:47:10;;;;;;;;;;;;;;;;;;5038865;28;20391;-83
2021/01/22 08:49:37;;;;;;;;;;;;;;;;;;5039327;28;20392;-82
2021/01/22 08:52:03;;;;;;;;;;;;;;;;;;5039262;28;20926;-82
2021/01/22 08:54:29;;;;;;;;;;;;;;;;;;5039518;28;20387;-82
2021/01/22 08:56:56;;;;;;;;;;;;;;;;;;5040275;28;20395;-82
2021/01/22 08:59:22;;;;;;;;;;;;;;;;;;5042340;28;20391;-81
2021/01/22 09:01:48;;;;;;;;;;;;;;;;;;5049372;28;20372;-81
2021/01/22 09:04:15;;;;;;;;;;;;;;;;;;5039696;28;20412;-85
2021/01/22 09:06:41;;;;;;;;;;;;;;;;;;5038534;28;20751;-81
2021/01/22 09:09:08;;;;;;;;;;;;;;;;;;5039288;28;20394;-86
2021/01/22 09:11:34;;;;;;;;;;;;;;;;;;5038340;28;20387;-83
2021/01/22 09:14:00;;;;;;;;;;;;;;;;;;5038572;28;20413;-82
2021/01/22 09:16:27;;;;;;;;;;;;;;;;;;5038286;28;20882;-82
2021/01/22 09:18:53;;;;;;;;;;;;;;;;;;5038155;28;20397;-82
2021/01/22 09:21:19;;;;;;;;;;;;;;;;;;5038229;28;20398;-82
2021/01/22 09:23:47;;;;;;;;;;;;;;;;;;5037941;28;20414;-82
2021/01/22 09:26:14;;;;;;;;;;;;;;;;;;5038010;28;20817;-83
2021/01/22 09:28:43;;;;;;;;;;;;;;;;;;5037731;28;20382;-83
2021/01/22 09:31:09;;;;;;;;;;;;;;;;;;5038384;28;20429;-83
2021/01/22 09:33:37;;;;;;;;;;;;;;;;;;5040639;28;20898;-86
2021/01/22 09:36:03;;;;;;;;;;;;;;;;;;5057293;28;20370;-84
2021/01/22 09:38:30;;;;;;;;;;;;;;;;;;5055543;28;20389;-80
2021/01/22 09:40:56;;;;;;;;;;;;;;;;;;5038620;28;20490;-82
2021/01/22 09:43:23;;;;;;;;;;;;;;;;;;5039770;28;20465;-83
2021/01/22 09:45:49;;;;;;;;;;;;;;;;;;5033932;28;20434;-83
2021/01/22 09:48:17;;;;;;;;;;;;;;;;;;5042902;28;20376;-84
2021/01/22 09:50:44;;;;;;;;;;;;;;;;;;5042855;28;20386;-84
2021/01/22 09:53:10;;;;;;;;;;;;;;;;;;5039816;28;20403;-84
2021/01/22 09:55:36;;;;;;;;;;;;;;;;;;5043147;28;20390;-82
2021/01/22 09:58:03;;;;;;;;;;;;;;;;;;5042285;28;20394;-85
2021/01/22 10:00:29;;;;;;;;;;;;;;;;;;5050707;28;20390;-84
2021/01/22 10:02:56;;;;;;;;;;;;;;;;;;5039345;28;20422;-87
2021/01/22 10:05:22;;;;;;;;;;;;;;;;;;5037628;28;20407;-87
2021/01/22 10:07:48;;;;;;;;;;;;;;;;;;5045656;28;20806;-81
2021/01/22 10:10:15;;;;;;;;;;;;;;;;;;5043824;28;20400;-83
2021/01/22 10:12:41;;;;;;;;;;;;;;;;;;5049464;28;20395;-85
2021/01/22 10:15:08;;;;;;;;;;;;;;;;;;5058275;28;20390;-84
2021/01/22 10:17:34;;;;;;;;;;;;;;;;;;5053236;28;20412;-84
2021/01/22 10:20:00;;;;;;;;;;;;;;;;;;5037823;28;20379;-86
2021/01/22 10:22:27;;;;;;;;;;;;;;;;;;5032114;28;20759;-86
2021/01/22 10:24:53;;;;;;;;;;;;;;;;;;5040317;28;20402;-85
2021/01/22 10:27:19;;;;;;;;;;;;;;;;;;5038289;28;20398;-85
2021/01/22 10:29:46;;;;;;;;;;;;;;;;;;5030719;28;20395;-85
2021/01/22 10:32:12;;;;;;;;;;;;;;;;;;5039940;28;20394;-85
2021/01/22 10:34:39;;;;;;;;;;;;;;;;;;5040706;28;20382;-85
2021/01/22 10:37:05;;;;;;;;;;;;;;;;;;5044228;28;20409;-85
2021/01/22 10:39:32;;;;;;;;;;;;;;;;;;5044722;28;20397;-83
2021/01/22 10:41:58;;;;;;;;;;;;;;;;;;5041600;28;20382;-84
2021/01/22 10:44:24;;;;;;;;;;;;;;;;;;5039420;28;20417;-82
2021/01/22 10:46:54;;;;;;;;;;;;;;;;;;5039391;28;20424;-82
2021/01/22 10:49:20;;;;;;;;;;;;;;;;;;5026165;28;20401;-83
2021/01/22 10:51:46;;;;;;;;;;;;;;;;;;5040111;28;20393;-85
2021/01/22 10:54:17;;;;;;;;;;;;;;;;;;5040533;28;20406;-85
2021/01/22 10:56:44;;;;;;;;;;;;;;;;;;5039568;28;20397;-83
2021/01/22 10:59:10;;;;;;;;;;;;;;;;;;5044201;28;20838;-83
2021/01/22 11:01:37;;;;;;;;;;;;;;;;;;5044112;28;20390;-85
2021/01/22 11:04:03;;;;;;;;;;;;;;;;;;5043977;28;21173;-84
2021/01/22 11:06:31;;;;;;;;;;;;;;;;;;5045086;28;20920;-85
2021/01/22 11:11:50;;;;;;;;;;;;;;;;;;5053552;28;20394;-84
2021/01/22 11:14:17;;;;;;;;;;;;;;;;;;5049096;28;20410;-85
2021/01/22 11:16:43;;;;;;;;;;;;;;;;;;5042674;28;20842;-85
2021/01/22 11:19:09;;;;;;;;;;;;;;;;;;5044173;28;20394;-83
2021/01/22 11:21:36;;;;;;;;;;;;;;;;;;5042107;28;20855;-85
2021/01/22 11:24:03;;;;;;;;;;;;;;;;;;5043595;28;20410;-86
2021/01/22 11:26:29;;;;;;;;;;;;;;;;;;5042988;28;20605;-84
2021/01/22 11:28:56;;;;;;;;;;;;;;;;;;5043321;28;20387;-85
2021/01/22 11:31:22;;;;;;;;;;;;;;;;;;5042926;28;20374;-85
2021/01/22 11:33:49;;;;;;;;;;;;;;;;;;5040839;28;20405;-82
2021/01/22 11:36:15;;;;;;;;;;;;;;;;;;5044027;28;20770;-84
2021/01/22 11:38:42;;;;;;;;;;;;;;;;;;5048673;28;20473;-84
2021/01/22 11:41:08;;;;;;;;;;;;;;;;;;5042649;28;20398;-82
2021/01/22 11:43:34;;;;;;;;;;;;;;;;;;5040755;28;20461;-84
2021/01/22 11:46:01;;;;;;;;;;;;;;;;;;5039552;28;20398;-82
2021/01/22 11:48:27;;;;;;;;;;;;;;;;;;5040016;28;20768;-83
2021/01/22 11:50:54;;;;;;;;;;;;;;;;;;5042585;28;20398;-83
2021/01/22 11:53:20;;;;;;;;;;;;;;;;;;5041542;28;20483;-82
2021/01/22 11:55:47;;;;;;;;;;;;;;;;;;5042591;28;20382;-83
2021/01/22 11:58:13;;;;;;;;;;;;;;;;;;5042717;28;20398;-84
2021/01/22 12:00:39;;;;;;;;;;;;;;;;;;5042976;28;20390;-83
2021/01/22 12:03:06;;;;;;;;;;;;;;;;;;5040778;28;20418;-84
2021/01/22 12:05:32;;;;;;;;;;;;;;;;;;5041728;28;20484;-82
2021/01/22 12:07:59;;;;;;;;;;;;;;;;;;5042200;28;20433;-87
2021/01/22 12:10:25;;;;;;;;;;;;;;;;;;5040677;28;20437;-88
2021/01/22 12:12:51;;;;;;;;;;;;;;;;;;5049965;28;20409;-88
2021/01/22 12:15:18;;;;;;;;;;;;;;;;;;5040304;28;20477;-89
2021/01/22 12:17:44;;;;;;;;;;;;;;;;;;5048713;28;20379;-87
2021/01/22 12:20:11;;;;;;;;;;;;;;;;;;5040658;28;20402;-86
2021/01/22 12:22:37;;;;;;;;;;;;;;;;;;5040531;28;20414;-86
2021/01/22 12:25:04;;;;;;;;;;;;;;;;;;5039159;28;20409;-86
2021/01/22 12:27:30;;;;;;;;;;;;;;;;;;5039638;28;20446;-85
2021/01/22 12:29:59;;;;;;;;;;;;;;;;;;5039611;28;20439;-85
2021/01/22 12:32:26;;;;;;;;;;;;;;;;;;5040543;28;20410;-84
2021/01/22 12:34:53;;;;;;;;;;;;;;;;;;5042453;28;20866;-84
2021/01/22 12:37:19;;;;;;;;;;;;;;;;;;5041348;28;20387;-84
2021/01/22 12:39:45;;;;;;;;;;;;;;;;;;5038339;28;20433;-82
2021/01/22 12:42:12;;;;;;;;;;;;;;;;;;5039280;28;20758;-85
2021/01/22 12:44:38;;;;;;;;;;;;;;;;;;5040859;28;20406;-85
2021/01/22 12:47:05;;;;;;;;;;;;;;;;;;5040001;28;20842;-84
2021/01/22 12:49:31;;;;;;;;;;;;;;;;;;5038426;28;20390;-82
2021/01/22 12:51:57;;;;;;;;;;;;;;;;;;5039727;28;20381;-83
2021/01/22 12:54:24;;;;;;;;;;;;;;;;;;5040914;28;20412;-86
2021/01/22 12:56:50;;;;;;;;;;;;;;;;;;5056784;28;20384;-83
2021/01/22 12:59:17;;;;;;;;;;;;;;;;;;5041136;28;20386;-85
2021/01/22 13:01:43;;;;;;;;;;;;;;;;;;5037648;28;20390;-85
2021/01/22 13:04:09;;;;;;;;;;;;;;;;;;5039731;28;20418;-84
2021/01/22 13:06:44;;;;;;;;;;;;;;;;;;5038705;28;20414;-84
2021/01/22 13:09:10;;;;;;;;;;;;;;;;;;5038585;28;20390;-86
2021/01/22 13:11:37;;;;;;;;;;;;;;;;;;5046003;28;20371;-84
2021/01/22 13:14:03;;;;;;;;;;;;;;;;;;5057555;28;20406;-84
2021/01/22 13:16:30;;;;;;;;;;;;;;;;;;5040999;28;20389;-84
2021/01/22 13:18:56;;;;;;;;;;;;;;;;;;5048993;28;20394;-82
2021/01/22 13:21:23;;;;;;;;;;;;;;;;;;5041501;28;20382;-84
2021/01/22 13:23:49;;;;;;;;;;;;;;;;;;5041813;28;20402;-84
2021/01/22 13:26:16;;;;;;;;;;;;;;;;;;5051220;28;20410;-80
2021/01/22 13:28:44;;;;;;;;;;;;;;;;;;5058364;28;20390;-83
2021/01/22 13:31:11;;;;;;;;;;;;;;;;;;5056102;28;20398;-85
2021/01/22 13:33:37;;;;;;;;;;;;;;;;;;5039916;28;20406;-86
2021/01/22 13:36:07;;;;;;;;;;;;;;;;;;5051601;28;20378;-84
2021/01/22 13:38:33;;;;;;;;;;;;;;;;;;5038703;28;20397;-84
2021/01/22 13:41:00;;;;;;;;;;;;;;;;;;5037939;28;20401;-86
2021/01/22 13:43:26;;;;;;;;;;;;;;;;;;5039641;28;20419;-84
2021/01/22 13:45:53;;;;;;;;;;;;;;;;;;5039661;28;20432;-85
2021/01/22 13:48:19;;;;;;;;;;;;;;;;;;5037958;28;20390;-85
2021/01/22 13:50:45;;;;;;;;;;;;;;;;;;5038926;28;20381;-83
2021/01/22 13:53:13;;;;;;;;;;;;;;;;;;5055926;28;20441;-84
2021/01/22 13:55:44;;;;;;;;;;;;;;;;;;5054239;28;20417;-83
2021/01/22 13:58:16;;;;;;;;;;;;;;;;;;5053153;28;20401;-84
2021/01/22 14:00:43;;;;;;;;;;;;;;;;;;5042226;28;20383;-84
2021/01/22 14:03:10;;;;;;;;;;;;;;;;;;5038578;28;20703;-83
2021/01/22 14:05:36;;;;;;;;;;;;;;;;;;5040312;28;20398;-86
2021/01/22 14:08:02;;;;;;;;;;;;;;;;;;5040037;28;20422;-84
2021/01/22 14:10:29;;;;;;;;;;;;;;;;;;5055405;28;20390;-83
2021/01/22 14:12:55;;;;;;;;;;;;;;;;;;5047429;28;20893;-85
2021/01/22 14:15:23;;;;;;;;;;;;;;;;;;5054829;28;20466;-83
2021/01/22 14:17:49;;;;;;;;;;;;;;;;;;5052995;28;20397;-82
2021/01/22 14:20:16;;;;;;;;;;;;;;;;;;5041168;28;20390;-82
2021/01/22 14:22:42;;;;;;;;;;;;;;;;;;5041138;28;20406;-82
2021/01/22 14:25:09;;;;;;;;;;;;;;;;;;5077520;23;20419;-82
2021/01/22 14:27:35;;;;;;;;;;;;;;;;;;5069293;28;20390;-84
2021/01/22 14:30:01;;;;;;;;;;;;;;;;;;5066636;28;20399;-84
2021/01/22 14:32:28;;;;;;;;;;;;;;;;;;5046546;28;20747;-81
2021/01/22 14:34:54;;;;;;;;;;;;;;;;;;5041719;28;20424;-82
2021/01/22 14:37:21;;;;;;;;;;;;;;;;;;5054274;28;20418;-82
2021/01/22 14:39:47;;;;;;;;;;;;;;;;;;5058596;28;20395;-82
2021/01/22 14:42:13;;;;;;;;;;;;;;;;;;5059288;28;20840;-82
2021/01/22 14:44:40;;;;;;;;;;;;;;;;;;5057741;28;20453;-82
2021/01/22 14:47:06;;;;;;;;;;;;;;;;;;5051613;28;20396;-85
2021/01/22 14:49:33;;;;;;;;;;;;;;;;;;5052545;28;20398;-84
2021/01/22 14:51:59;;;;;;;;;;;;;;;;;;5060096;28;20384;-85
2021/01/22 14:54:25;;;;;;;;;;;;;;;;;;5051995;28;20837;-83
2021/01/22 14:56:52;;;;;;;;;;;;;;;;;;5051369;28;20391;-83
2021/01/22 14:59:18;;;;;;;;;;;;;;;;;;5061376;28;20398;-84
2021/01/22 15:01:44;;;;;;;;;;;;;;;;;;5059737;28;20383;-84
2021/01/22 15:04:11;;;;;;;;;;;;;;;;;;5060466;28;20411;-85
2021/01/22 15:06:37;;;;;;;;;;;;;;;;;;5055849;28;20449;-85
2021/01/22 15:09:04;;;;;;;;;;;;;;;;;;5051629;28;20779;-85
2021/01/22 15:11:30;;;;;;;;;;;;;;;;;;5053207;28;20395;-82
2021/01/22 15:13:56;;;;;;;;;;;;;;;;;;5053300;28;20402;-84
2021/01/22 15:16:23;;;;;;;;;;;;;;;;;;5052839;28;20390;-82
2021/01/22 15:18:50;;;;;;;;;;;;;;;;;;5045829;28;20404;-82
2021/01/22 15:21:17;;;;;;;;;;;;;;;;;;5071809;28;20399;-82
2021/01/22 15:23:43;;;;;;;;;;;;;;;;;;5057027;28;20420;-84
2021/01/22 15:26:10;;;;;;;;;;;;;;;;;;5072691;28;20407;-84
2021/01/22 15:28:36;;;;;;;;;;;;;;;;;;5068608;28;20400;-84
2021/01/22 15:31:02;;;;;;;;;;;;;;;;;;5060474;28;20388;-85
2021/01/22 15:33:29;;;;;;;;;;;;;;;;;;5045373;28;20414;-85
2021/01/22 15:35:56;;;;;;;;;;;;;;;;;;5059560;28;20391;-83
2021/01/22 15:38:22;;;;;;;;;;;;;;;;;;5052367;28;20438;-84
2021/01/22 15:40:49;;;;;;;;;;;;;;;;;;5057213;28;20380;-85
2021/01/22 15:43:15;;;;;;;;;;;;;;;;;;5047437;28;20936;-85
2021/01/22 15:45:41;;;;;;;;;;;;;;;;;;5048958;28;20401;-85
2021/01/22 15:48:08;;;;;;;;;;;;;;;;;;5040448;28;20402;-84
2021/01/22 15:50:34;;;;;;;;;;;;;;;;;;5051558;28;20380;-84
2021/01/22 15:53:01;;;;;;;;;;;;;;;;;;5063969;28;20376;-82
2021/01/22 15:55:27;;;;;;;;;;;;;;;;;;5072191;28;20466;-84
2021/01/22 15:57:55;;;;;;;;;;;;;;;;;;5061368;28;22530;-83
2021/01/22 16:00:21;;;;;;;;;;;;;;;;;;5054162;28;20382;-83
2021/01/22 16:02:47;;;;;;;;;;;;;;;;;;5066443;28;20438;-85
2021/01/22 16:05:14;;;;;;;;;;;;;;;;;;5046958;28;20952;-87
2021/01/22 16:07:41;;;;;;;;;;;;;;;;;;5049833;28;20387;-85
2021/01/22 16:10:07;;;;;;;;;;;;;;;;;;5043905;28;20396;-83
2021/01/22 16:12:33;;;;;;;;;;;;;;;;;;5051530;28;20391;-84
2021/01/22 16:15:00;;;;;;;;;;;;;;;;;;5054616;28;20400;-82
2021/01/22 16:17:26;;;;;;;;;;;;;;;;;;5047672;28;20423;-84
2021/01/22 16:19:52;;;;;;;;;;;;;;;;;;5053142;28;20388;-84
2021/01/22 16:22:19;;;;;;;;;;;;;;;;;;5061388;28;20381;-82
2021/01/22 16:24:45;;;;;;;;;;;;;;;;;;5062619;28;20438;-82
2021/01/22 16:27:12;;;;;;;;;;;;;;;;;;5043123;28;20383;-82
2021/01/22 16:29:38;;;;;;;;;;;;;;;;;;5057384;28;20384;-84
2021/01/22 16:32:05;;;;;;;;;;;;;;;;;;5057896;28;20402;-83
2021/01/22 16:34:31;;;;;;;;;;;;;;;;;;5042963;28;20411;-85
2021/01/22 16:36:57;;;;;;;;;;;;;;;;;;5055666;28;20402;-84
2021/01/22 16:39:24;;;;;;;;;;;;;;;;;;5045855;28;20384;-84
2021/01/22 16:41:50;;;;;;;;;;;;;;;;;;5043102;28;20463;-85
2021/01/22 16:44:17;;;;;;;;;;;;;;;;;;5058889;28;20419;-85